createdAt,value
2017-03-23T00:00:22.933Z,91.33
2017-03-23T00:01:03.457Z,91.8
2017-03-23T00:01:43.908Z,91.33
2017-03-23T00:02:24.263Z,91.71
2017-03-23T00:03:04.700Z,91.61
2017-03-23T00:03:46.024Z,91.42
2017-03-23T00:04:27.371Z,91.33
2017-03-23T00:05:07.851Z,91.71
2017-03-23T00:05:48.248Z,91.61
2017-03-23T00:06:28.623Z,91.61
2017-03-23T00:07:09.029Z,91.8
2017-03-23T00:07:49.560Z,91.8
2017-03-23T00:08:30.004Z,91.61
2017-03-23T00:09:10.379Z,91.8
2017-03-23T00:09:50.841Z,92.28
2017-03-23T00:10:31.263Z,91.99
2017-03-23T00:11:11.652Z,91.99
2017-03-23T00:11:52.065Z,92.18
2017-03-23T00:12:32.428Z,92.18
2017-03-23T00:13:12.857Z,92.09
2017-03-23T00:13:53.236Z,92.56
2017-03-23T00:14:33.618Z,92.66
2017-03-23T00:15:13.997Z,92.28
2017-03-23T00:15:54.400Z,92.18
2017-03-23T00:16:34.816Z,92.66
2017-03-23T00:17:15.198Z,92.75
2017-03-23T00:17:55.628Z,92.18
2017-03-23T00:18:36.060Z,92.18
2017-03-23T00:19:16.489Z,92.56
2017-03-23T00:19:56.946Z,91.89
2017-03-23T00:20:37.310Z,92.66
2017-03-23T00:21:19.727Z,92.56
2017-03-23T00:22:00.685Z,92.56
2017-03-23T00:22:41.165Z,92.56
2017-03-23T00:23:21.625Z,92.47
2017-03-23T00:24:02.001Z,92.56
2017-03-23T00:24:42.526Z,92.28
2017-03-23T00:25:22.893Z,92.47
2017-03-23T00:26:03.345Z,92.47
2017-03-23T00:26:43.765Z,92.75
2017-03-23T00:27:24.145Z,92.56
2017-03-23T00:28:04.610Z,92.37
2017-03-23T00:28:45.049Z,92.56
2017-03-23T00:29:25.450Z,92.37
2017-03-23T00:30:05.856Z,92.56
2017-03-23T00:30:46.253Z,92.56
2017-03-23T00:31:26.692Z,92.56
2017-03-23T00:32:07.104Z,92.56
2017-03-23T00:32:47.506Z,92.56
2017-03-23T00:33:27.990Z,91.99
2017-03-23T00:34:08.349Z,92.56
2017-03-23T00:34:48.756Z,92.56
2017-03-23T00:35:29.176Z,92.37
2017-03-23T00:36:09.586Z,92.66
2017-03-23T00:36:49.964Z,92.47
2017-03-23T00:37:30.356Z,92.18
2017-03-23T00:38:10.778Z,92.66
2017-03-23T00:38:51.236Z,92.47
2017-03-23T00:39:31.619Z,92.18
2017-03-23T00:40:12.024Z,92.94
2017-03-23T00:40:52.419Z,92.66
2017-03-23T00:41:32.851Z,92.75
2017-03-23T00:42:13.193Z,92.47
2017-03-23T00:42:53.629Z,92.66
2017-03-23T00:43:34.054Z,92.85
2017-03-23T00:44:14.399Z,92.47
2017-03-23T00:46:05.931Z,92.56
2017-03-23T00:46:54.886Z,92.47
2017-03-23T00:47:43.002Z,92.66
2017-03-23T00:48:31.617Z,92.37
2017-03-23T00:49:20.347Z,93.04
2017-03-23T00:50:08.915Z,92.94
2017-03-23T00:50:57.307Z,93.04
2017-03-23T00:51:46.180Z,92.75
2017-03-23T00:52:35.298Z,92.75
2017-03-23T00:53:23.591Z,93.23
2017-03-23T00:54:12.022Z,93.41
2017-03-23T00:55:00.737Z,93.23
2017-03-23T00:55:49.632Z,92.94
2017-03-23T00:56:38.057Z,92.85
2017-03-23T00:57:26.485Z,92.94
2017-03-23T00:58:15.243Z,92.66
2017-03-23T00:59:03.987Z,92.75
2017-03-23T00:59:52.201Z,92.85
2017-03-23T01:00:40.782Z,92.85
2017-03-23T01:01:29.395Z,93.13
2017-03-23T01:02:17.570Z,93.23
2017-03-23T01:03:06.100Z,92.85
2017-03-23T01:03:52.770Z,93.18
2017-03-23T01:04:40.705Z,92.85
2017-03-23T01:05:29.010Z,93.7
2017-03-23T01:06:17.549Z,93.51
2017-03-23T01:08:08.748Z,93.32
2017-03-23T01:08:54.196Z,93.04
2017-03-23T01:09:35.213Z,93.41
2017-03-23T01:10:15.701Z,93.32
2017-03-23T01:10:56.073Z,93.32
2017-03-23T01:11:36.473Z,93.32
2017-03-23T01:12:16.882Z,93.41
2017-03-23T01:12:57.277Z,93.13
2017-03-23T01:13:37.678Z,93.7
2017-03-23T01:14:18.071Z,93.8
2017-03-23T01:14:59.384Z,93.8
2017-03-23T01:15:40.499Z,93.32
2017-03-23T01:16:20.900Z,93.6
2017-03-23T01:17:02.956Z,93.75
2017-03-23T01:17:43.396Z,93.75
2017-03-23T01:18:23.760Z,93.65
2017-03-23T01:19:04.439Z,93.37
2017-03-23T01:19:46.512Z,93.37
2017-03-23T01:20:27.451Z,93.46
2017-03-23T01:21:07.918Z,93.46
2017-03-23T01:21:49.346Z,93.46
2017-03-23T01:22:30.401Z,93.37
2017-03-23T01:23:12.232Z,93.32
2017-03-23T01:23:52.624Z,93.37
2017-03-23T01:24:33.937Z,93.23
2017-03-23T01:25:14.936Z,93.27
2017-03-23T01:25:56.120Z,93.32
2017-03-23T01:26:36.528Z,93.41
2017-03-23T01:27:17.182Z,93.32
2017-03-23T01:27:58.284Z,93.13
2017-03-23T01:28:39.324Z,93.23
2017-03-23T01:29:21.181Z,93.37
2017-03-23T01:30:03.153Z,93.23
2017-03-23T01:30:44.437Z,93.23
2017-03-23T01:31:27.220Z,93.04
2017-03-23T01:32:08.345Z,93.32
2017-03-23T01:32:49.715Z,93.51
2017-03-23T01:33:30.091Z,93.7
2017-03-23T01:34:11.216Z,93.23
2017-03-23T01:34:52.131Z,93.89
2017-03-23T01:35:32.533Z,94.08
2017-03-23T01:36:14.929Z,93.94
2017-03-23T01:36:56.758Z,93.7
2017-03-23T01:37:38.811Z,93.7
2017-03-23T01:38:20.804Z,93.7
2017-03-23T01:39:02.788Z,93.89
2017-03-23T01:39:45.513Z,93.89
2017-03-23T01:40:26.030Z,93.89
2017-03-23T01:41:07.264Z,93.8
2017-03-23T01:41:48.966Z,93.7
2017-03-23T01:42:31.189Z,93.89
2017-03-23T01:43:11.676Z,93.32
2017-03-23T01:43:52.105Z,93.7
2017-03-23T01:44:33.424Z,93.32
2017-03-23T01:45:14.776Z,93.13
2017-03-23T01:45:55.208Z,93.23
2017-03-23T01:46:35.636Z,93.51
2017-03-23T01:47:17.821Z,92.85
2017-03-23T01:47:58.226Z,92.94
2017-03-23T01:48:41.323Z,93.41
2017-03-23T01:49:23.218Z,93.51
2017-03-23T01:50:05.225Z,93.41
2017-03-23T01:50:46.367Z,93.04
2017-03-23T01:51:27.375Z,93.23
2017-03-23T01:52:09.710Z,93.32
2017-03-23T01:52:50.107Z,92.85
2017-03-23T01:53:33.716Z,93.23
2017-03-23T01:54:14.477Z,93.04
2017-03-23T01:54:55.350Z,92.85
2017-03-23T01:55:36.347Z,93.32
2017-03-23T01:56:21.469Z,93.23
2017-03-23T01:57:01.956Z,93.13
2017-03-23T01:57:42.397Z,93.23
2017-03-23T01:58:22.754Z,93.65
2017-03-23T01:59:03.182Z,93.84
2017-03-23T01:59:44.405Z,93.94
2017-03-23T02:00:25.506Z,93.75
2017-03-23T02:01:05.877Z,93.65
2017-03-23T02:01:46.561Z,93.75
2017-03-23T02:02:26.974Z,94.23
2017-03-23T02:03:07.370Z,93.94
2017-03-23T02:03:47.850Z,94.42
2017-03-23T02:04:28.179Z,94.51
2017-03-23T02:05:09.291Z,94.32
2017-03-23T02:05:50.020Z,94.89
2017-03-23T02:06:30.444Z,94.23
2017-03-23T02:07:12.246Z,94.13
2017-03-23T02:07:53.445Z,94.51
2017-03-23T02:08:33.791Z,94.23
2017-03-23T02:09:14.208Z,94.32
2017-03-23T02:09:54.573Z,93.94
2017-03-23T02:10:35.015Z,94.13
2017-03-23T02:11:15.447Z,94.42
2017-03-23T02:11:56.393Z,94.23
2017-03-23T02:12:37.089Z,93.94
2017-03-23T02:13:17.581Z,94.23
2017-03-23T02:13:58.836Z,94.6
2017-03-23T02:14:40.211Z,93.94
2017-03-23T02:15:20.682Z,94.13
2017-03-23T02:16:07.291Z,94.23
2017-03-23T02:16:47.659Z,93.94
2017-03-23T02:17:28.963Z,94.42
2017-03-23T02:18:09.281Z,94.6
2017-03-23T02:18:49.683Z,94.79
2017-03-23T02:19:30.051Z,94.98
2017-03-23T02:20:10.553Z,95.36
2017-03-23T02:20:52.717Z,95.07
2017-03-23T02:21:33.199Z,94.98
2017-03-23T02:22:15.218Z,94.98
2017-03-23T02:22:56.310Z,95.17
2017-03-23T02:23:36.746Z,95.07
2017-03-23T02:24:17.152Z,94.89
2017-03-23T02:24:57.543Z,94.89
2017-03-23T02:25:37.971Z,95.36
2017-03-23T02:26:18.935Z,94.6
2017-03-23T02:26:59.300Z,94.89
2017-03-23T02:27:39.719Z,94.42
2017-03-23T02:28:20.129Z,94.7
2017-03-23T02:29:00.543Z,94.51
2017-03-23T02:29:41.894Z,94.03
2017-03-23T02:30:22.345Z,94.6
2017-03-23T02:31:02.738Z,94.6
2017-03-23T02:31:43.108Z,94.23
2017-03-23T02:32:24.469Z,94.32
2017-03-23T02:33:04.893Z,94.6
2017-03-23T02:33:45.984Z,94.32
2017-03-23T02:34:27.260Z,94.89
2017-03-23T02:35:07.646Z,94.79
2017-03-23T02:35:48.030Z,94.6
2017-03-23T02:36:28.428Z,94.6
2017-03-23T02:37:08.822Z,95.27
2017-03-23T02:37:49.841Z,95.27
2017-03-23T02:38:30.206Z,95.17
2017-03-23T02:39:10.650Z,95.17
2017-03-23T02:39:51.069Z,94.51
2017-03-23T02:40:31.448Z,95.27
2017-03-23T02:41:11.862Z,95.07
2017-03-23T02:41:52.284Z,94.6
2017-03-23T02:42:32.659Z,95.17
2017-03-23T02:43:13.080Z,94.6
2017-03-23T02:43:53.440Z,95.17
2017-03-23T02:44:33.911Z,95.17
2017-03-23T02:45:14.320Z,94.98
2017-03-23T02:45:54.721Z,95.17
2017-03-23T02:46:35.167Z,94.98
2017-03-23T02:47:15.545Z,94.89
2017-03-23T02:47:56.048Z,94.7
2017-03-23T02:48:37.078Z,94.79
2017-03-23T02:49:17.467Z,94.89
2017-03-23T02:49:58.476Z,95.07
2017-03-23T02:50:39.807Z,95.07
2017-03-23T02:51:20.234Z,95.17
2017-03-23T02:52:01.402Z,95.07
2017-03-23T02:52:41.790Z,94.98
2017-03-23T02:53:22.804Z,95.17
2017-03-23T02:54:03.247Z,95.07
2017-03-23T02:54:43.692Z,95.17
2017-03-23T02:55:24.038Z,95.17
2017-03-23T02:56:04.423Z,94.79
2017-03-23T02:56:44.848Z,94.7
2017-03-23T02:57:25.262Z,94.89
2017-03-23T02:58:05.638Z,94.98
2017-03-23T02:58:46.093Z,95.17
2017-03-23T02:59:29.443Z,95.17
2017-03-23T03:00:09.829Z,95.07
2017-03-23T03:00:50.266Z,95.17
2017-03-23T03:01:31.369Z,94.79
2017-03-23T03:02:11.833Z,94.98
2017-03-23T03:02:52.207Z,94.6
2017-03-23T03:03:32.632Z,94.42
2017-03-23T03:04:13.025Z,94.89
2017-03-23T03:04:54.023Z,94.42
2017-03-23T03:05:34.460Z,94.89
2017-03-23T03:06:14.910Z,94.89
2017-03-23T03:06:55.256Z,94.79
2017-03-23T03:07:35.659Z,94.7
2017-03-23T03:08:16.149Z,94.89
2017-03-23T03:08:56.492Z,94.89
2017-03-23T03:09:36.904Z,95.17
2017-03-23T03:10:17.322Z,95.36
2017-03-23T03:10:57.706Z,94.89
2017-03-23T03:11:39.830Z,95.07
2017-03-23T03:12:22.737Z,94.98
2017-03-23T03:13:03.144Z,94.89
2017-03-23T03:13:43.540Z,95.07
2017-03-23T03:14:23.964Z,94.98
2017-03-23T03:15:04.432Z,95.07
2017-03-23T03:15:44.816Z,95.17
2017-03-23T03:16:25.839Z,95.07
2017-03-23T03:17:06.245Z,95.27
2017-03-23T03:17:47.374Z,95.27
2017-03-23T03:18:27.840Z,95.36
2017-03-23T03:19:08.821Z,95.07
2017-03-23T03:19:49.267Z,95.36
2017-03-23T03:20:31.224Z,95.55
2017-03-23T03:21:11.651Z,95.36
2017-03-23T03:21:52.997Z,95.46
2017-03-23T03:22:33.896Z,95.36
2017-03-23T03:23:14.904Z,95.17
2017-03-23T03:23:55.341Z,95.93
2017-03-23T03:24:36.530Z,95.84
2017-03-23T03:25:16.890Z,95.74
2017-03-23T03:25:57.343Z,95.65
2017-03-23T03:26:37.769Z,95.46
2017-03-23T03:27:18.894Z,95.74
2017-03-23T03:27:59.315Z,95.93
2017-03-23T03:28:40.552Z,95.84
2017-03-23T03:29:20.878Z,95.74
2017-03-23T03:30:01.297Z,95.74
2017-03-23T03:30:41.710Z,95.74
2017-03-23T03:31:22.143Z,95.74
2017-03-23T03:32:02.554Z,95.27
2017-03-23T03:32:43.783Z,95.93
2017-03-23T03:33:24.159Z,95.55
2017-03-23T03:34:04.551Z,95.74
2017-03-23T03:34:44.982Z,95.55
2017-03-23T03:35:25.358Z,95.74
2017-03-23T03:36:05.801Z,95.93
2017-03-23T03:36:46.221Z,95.65
2017-03-23T03:37:27.275Z,95.84
2017-03-23T03:38:07.716Z,96.59
2017-03-23T03:38:51.206Z,95.93
2017-03-23T03:39:31.628Z,96.12
2017-03-23T03:40:12.138Z,96.31
2017-03-23T03:40:52.527Z,96.59
2017-03-23T03:41:32.925Z,96.78
2017-03-23T03:42:13.854Z,96.78
2017-03-23T03:42:54.249Z,96.69
2017-03-23T03:43:34.601Z,96.78
2017-03-23T03:44:15.005Z,96.78
2017-03-23T03:44:55.453Z,96.78
2017-03-23T03:45:35.882Z,95.93
2017-03-23T03:46:16.304Z,96.78
2017-03-23T03:46:56.689Z,96.78
2017-03-23T03:47:37.135Z,96.88
2017-03-23T03:48:17.521Z,96.59
2017-03-23T03:48:57.932Z,96.69
2017-03-23T03:49:38.298Z,96.59
2017-03-23T03:50:18.723Z,96.78
2017-03-23T03:50:59.154Z,96.78
2017-03-23T03:51:39.510Z,96.5
2017-03-23T03:52:19.952Z,96.59
2017-03-23T03:53:00.384Z,96.78
2017-03-23T03:53:41.826Z,96.69
2017-03-23T03:54:22.220Z,96.88
2017-03-23T03:55:02.650Z,96.22
2017-03-23T03:55:43.077Z,96.17
2017-03-23T03:56:23.453Z,95.93
2017-03-23T03:57:04.713Z,95.98
2017-03-23T03:57:45.125Z,96.17
2017-03-23T03:58:26.418Z,96.17
2017-03-23T03:59:06.831Z,96.08
2017-03-23T03:59:47.232Z,96.26
2017-03-23T04:00:27.613Z,96.36
2017-03-23T04:01:08.893Z,95.98
2017-03-23T04:01:49.330Z,96.08
2017-03-23T04:02:29.751Z,96.17
2017-03-23T04:03:10.168Z,96.36
2017-03-23T04:03:50.617Z,96.36
2017-03-23T04:04:31.894Z,96.36
2017-03-23T04:05:12.331Z,96.17
2017-03-23T04:05:53.504Z,96.36
2017-03-23T04:06:34.596Z,96.26
2017-03-23T04:07:15.822Z,96.08
2017-03-23T04:07:56.261Z,96.36
2017-03-23T04:08:36.882Z,96.26
2017-03-23T04:09:17.420Z,96.08
2017-03-23T04:09:57.896Z,96.36
2017-03-23T04:10:38.179Z,96.36
2017-03-23T04:11:18.629Z,96.45
2017-03-23T04:11:58.991Z,96.17
2017-03-23T04:12:39.420Z,96.26
2017-03-23T04:13:19.786Z,95.98
2017-03-23T04:14:00.229Z,95.98
2017-03-23T04:14:40.631Z,96.17
2017-03-23T04:15:21.028Z,95.98
2017-03-23T04:16:01.452Z,95.98
2017-03-23T04:16:41.905Z,95.98
2017-03-23T04:17:22.323Z,95.79
2017-03-23T04:18:02.749Z,95.98
2017-03-23T04:18:43.979Z,95.79
2017-03-23T04:19:24.503Z,95.79
2017-03-23T04:20:05.792Z,95.98
2017-03-23T04:20:46.287Z,95.98
2017-03-23T04:21:26.709Z,95.79
2017-03-23T04:22:07.122Z,95.98
2017-03-23T04:22:47.539Z,95.7
2017-03-23T04:23:27.933Z,95.7
2017-03-23T04:24:08.292Z,95.7
2017-03-23T04:24:48.751Z,95.7
2017-03-23T04:25:29.176Z,96.17
2017-03-23T04:26:09.605Z,96.08
2017-03-23T04:26:49.980Z,96.08
2017-03-23T04:27:30.415Z,95.79
2017-03-23T04:28:10.824Z,95.98
2017-03-23T04:28:51.225Z,95.89
2017-03-23T04:29:31.745Z,95.98
2017-03-23T04:30:12.850Z,96.08
2017-03-23T04:30:53.251Z,95.98
2017-03-23T04:31:33.633Z,95.79
2017-03-23T04:32:14.040Z,95.79
2017-03-23T04:32:55.241Z,96.08
2017-03-23T04:33:35.684Z,95.89
2017-03-23T04:34:16.917Z,95.98
2017-03-23T04:34:58.910Z,96.08
2017-03-23T04:35:39.298Z,96.08
2017-03-23T04:36:19.742Z,95.89
2017-03-23T04:37:00.094Z,95.98
2017-03-23T04:37:41.546Z,95.98
2017-03-23T04:38:21.913Z,95.79
2017-03-23T04:39:02.274Z,95.98
2017-03-23T04:39:42.696Z,95.79
2017-03-23T04:40:23.117Z,96.17
2017-03-23T04:41:03.511Z,96.36
2017-03-23T04:41:43.939Z,96.17
2017-03-23T04:42:24.474Z,96.26
2017-03-23T04:43:04.753Z,96.17
2017-03-23T04:43:45.183Z,96.17
2017-03-23T04:44:25.591Z,96.17
2017-03-23T04:45:06.004Z,95.98
2017-03-23T04:45:46.436Z,96.03
2017-03-23T04:46:26.860Z,96.31
2017-03-23T04:48:16.288Z,95.55
2017-03-23T04:48:57.979Z,96.22
2017-03-23T04:49:38.566Z,95.84
2017-03-23T04:50:19.750Z,96.12
2017-03-23T04:51:00.714Z,96.31
2017-03-23T04:51:42.156Z,95.84
2017-03-23T04:52:22.559Z,95.75
2017-03-23T04:53:02.912Z,95.79
2017-03-23T04:53:45.047Z,95.84
2017-03-23T04:54:25.545Z,96.03
2017-03-23T04:55:05.979Z,96.03
2017-03-23T04:55:46.454Z,95.94
2017-03-23T04:56:27.297Z,95.89
2017-03-23T04:57:08.345Z,95.7
2017-03-23T04:57:48.805Z,95.89
2017-03-23T04:58:29.227Z,95.89
2017-03-23T04:59:09.610Z,95.89
2017-03-23T04:59:49.964Z,96.64
2017-03-23T05:00:30.404Z,96.17
2017-03-23T05:01:10.797Z,95.98
2017-03-23T05:01:51.730Z,96.17
2017-03-23T05:02:33.073Z,96.26
2017-03-23T05:03:14.307Z,96.17
2017-03-23T05:03:55.240Z,95.98
2017-03-23T05:04:35.624Z,95.79
2017-03-23T05:05:17.694Z,96.17
2017-03-23T05:08:41.336Z,96.17
2017-03-23T05:09:25.945Z,95.89
2017-03-23T05:10:07.169Z,95.79
2017-03-23T05:10:47.602Z,95.89
2017-03-23T05:11:28.556Z,95.98
2017-03-23T05:12:09.656Z,96.17
2017-03-23T05:12:51.020Z,96.45
2017-03-23T05:13:31.418Z,96.26
2017-03-23T05:14:12.636Z,96.08
2017-03-23T05:14:53.064Z,97.02
2017-03-23T05:15:34.210Z,96.26
2017-03-23T05:16:14.607Z,96.36
2017-03-23T05:16:55.974Z,96.17
2017-03-23T05:19:12.912Z,96.17
2017-03-23T05:19:56.834Z,95.79
2017-03-23T05:20:38.970Z,95.98
2017-03-23T05:21:19.325Z,95.98
2017-03-23T05:23:09.451Z,96.08
2017-03-23T05:23:53.938Z,95.98
2017-03-23T05:24:34.370Z,96.26
2017-03-23T05:25:16.398Z,95.98
2017-03-23T05:25:56.788Z,95.89
2017-03-23T05:26:37.762Z,96.17
2017-03-23T05:27:18.147Z,95.98
2017-03-23T05:27:58.558Z,95.98
2017-03-23T05:28:38.934Z,95.98
2017-03-23T05:29:19.410Z,96.74
2017-03-23T05:30:00.931Z,96.64
2017-03-23T05:30:41.318Z,96.45
2017-03-23T05:31:21.779Z,96.64
2017-03-23T05:32:02.216Z,96.74
2017-03-23T05:32:43.714Z,96.55
2017-03-23T05:33:24.693Z,97.22
2017-03-23T05:34:05.163Z,97.22
2017-03-23T05:34:49.178Z,96.83
2017-03-23T05:35:31.410Z,96.83
2017-03-23T05:36:11.845Z,97.02
2017-03-23T05:36:53.089Z,97.78
2017-03-23T05:37:33.537Z,97.78
2017-03-23T05:38:13.960Z,97.69
2017-03-23T05:38:54.352Z,97.41
2017-03-23T05:39:36.935Z,97.41
2017-03-23T05:40:18.956Z,97.41
2017-03-23T05:40:59.387Z,97.6
2017-03-23T05:41:39.790Z,97.41
2017-03-23T05:42:22.119Z,97.31
2017-03-23T05:43:02.586Z,97.6
2017-03-23T05:43:43.590Z,97.5
2017-03-23T05:44:26.718Z,97.41
2017-03-23T05:45:07.275Z,97.69
2017-03-23T05:45:47.826Z,97.69
2017-03-23T05:46:28.153Z,97.31
2017-03-23T05:47:08.766Z,96.74
2017-03-23T05:47:49.619Z,97.02
2017-03-23T05:48:31.411Z,97.02
2017-03-23T05:49:12.412Z,97.27
2017-03-23T05:49:53.915Z,96.79
2017-03-23T05:50:34.460Z,96.79
2017-03-23T05:51:15.424Z,96.79
2017-03-23T05:51:55.876Z,96.88
2017-03-23T05:52:37.959Z,96.88
2017-03-23T05:53:19.278Z,96.98
2017-03-23T05:53:59.775Z,97.07
2017-03-23T05:54:40.204Z,97.07
2017-03-23T05:55:25.015Z,96.88
2017-03-23T05:56:07.552Z,96.88
2017-03-23T05:56:49.451Z,96.88
2017-03-23T05:57:29.871Z,96.88
2017-03-23T05:58:10.323Z,96.88
2017-03-23T05:58:50.894Z,96.88
2017-03-23T05:59:31.146Z,97.07
2017-03-23T06:00:11.555Z,97.17
2017-03-23T06:00:55.609Z,97.07
2017-03-23T06:01:36.019Z,97.27
2017-03-23T06:02:17.018Z,97.36
2017-03-23T06:02:57.538Z,96.79
2017-03-23T06:05:12.271Z,97.27
2017-03-23T06:05:56.552Z,97.27
2017-03-23T06:06:37.441Z,97.27
2017-03-23T06:07:17.926Z,97.27
2017-03-23T06:08:00.389Z,97.07
2017-03-23T06:08:42.544Z,97.07
2017-03-23T06:09:23.029Z,97.07
2017-03-23T06:10:04.154Z,96.88
2017-03-23T06:10:44.603Z,97.07
2017-03-23T06:11:25.013Z,97.07
2017-03-23T06:12:05.452Z,97.07
2017-03-23T06:12:46.761Z,97.27
2017-03-23T06:13:28.571Z,96.88
2017-03-23T06:14:08.956Z,97.27
2017-03-23T06:14:49.421Z,97.17
2017-03-23T06:15:30.438Z,97.27
2017-03-23T06:16:10.876Z,97.07
2017-03-23T06:16:51.227Z,97.07
2017-03-23T06:17:32.201Z,96.79
2017-03-23T06:18:13.215Z,97.07
2017-03-23T06:18:55.214Z,97.27
2017-03-23T06:19:36.493Z,96.79
2017-03-23T06:20:17.804Z,96.88
2017-03-23T06:21:01.129Z,96.88
2017-03-23T06:21:41.546Z,97.07
2017-03-23T06:22:22.706Z,96.79
2017-03-23T06:23:03.121Z,97.07
2017-03-23T06:23:44.155Z,96.79
2017-03-23T06:24:27.026Z,97.17
2017-03-23T06:25:08.831Z,97.07
2017-03-23T06:25:49.276Z,97.07
2017-03-23T06:26:32.970Z,97.17
2017-03-23T06:27:15.148Z,96.79
2017-03-23T06:27:56.414Z,97.17
2017-03-23T06:28:37.486Z,96.79
2017-03-23T06:29:19.883Z,96.79
2017-03-23T06:30:03.687Z,96.88
2017-03-23T06:30:44.171Z,96.98
2017-03-23T06:31:25.234Z,97.27
2017-03-23T06:32:05.795Z,97.07
2017-03-23T06:32:46.182Z,97.07
2017-03-23T06:33:27.446Z,97.07
2017-03-23T06:34:07.923Z,97.07
2017-03-23T06:34:49.184Z,97.64
2017-03-23T06:35:31.089Z,97.27
2017-03-23T06:36:11.488Z,97.64
2017-03-23T06:36:53.640Z,97.83
2017-03-23T06:37:34.070Z,97.64
2017-03-23T06:38:14.501Z,97.83
2017-03-23T06:38:54.853Z,98.12
2017-03-23T06:39:35.262Z,98.26
2017-03-23T06:40:15.755Z,98.17
2017-03-23T06:40:57.119Z,98.36
2017-03-23T06:41:37.569Z,98.69
2017-03-23T06:42:18.014Z,98.6
2017-03-23T06:42:58.390Z,98.6
2017-03-23T06:43:43.969Z,98.36
2017-03-23T06:44:25.211Z,98.17
2017-03-23T06:45:08.057Z,97.46
2017-03-23T06:45:50.484Z,97.27
2017-03-23T06:46:30.947Z,96.22
2017-03-23T06:47:12.155Z,96.03
2017-03-23T06:47:53.182Z,95.56
2017-03-23T06:48:34.463Z,94.98
2017-03-23T06:49:15.481Z,95.17
2017-03-23T06:49:56.662Z,94.51
2017-03-23T06:50:38.004Z,94.6
2017-03-23T06:51:19.194Z,94.42
2017-03-23T06:52:00.043Z,95.27
2017-03-23T06:52:40.481Z,95.17
2017-03-23T06:53:21.519Z,94.79
2017-03-23T06:54:04.829Z,95.08
2017-03-23T06:54:46.090Z,94.6
2017-03-23T06:55:28.961Z,94.6
2017-03-23T06:56:09.414Z,94.46
2017-03-23T06:56:49.802Z,94.37
2017-03-23T06:57:30.244Z,94.46
2017-03-23T06:58:12.473Z,94.56
2017-03-23T06:58:52.889Z,94.37
2017-03-23T07:03:13.486Z,95.08
2017-03-23T07:05:43.086Z,95.75
2017-03-23T07:06:29.066Z,96.31
2017-03-23T07:07:09.441Z,96.69
2017-03-23T07:09:32.762Z,96.79
2017-03-23T07:10:17.137Z,96.89
2017-03-23T07:10:59.044Z,96.12
2017-03-23T07:11:40.381Z,96.41
2017-03-23T07:12:20.833Z,95.84
2017-03-23T07:13:01.588Z,95.84
2017-03-23T07:13:42.242Z,95.75
2017-03-23T07:14:23.045Z,95.75
2017-03-23T07:15:03.585Z,96.03
2017-03-23T07:15:44.833Z,95.65
2017-03-23T07:16:25.192Z,95.84
2017-03-23T07:17:07.446Z,96.03
2017-03-23T07:17:47.892Z,95.94
2017-03-23T07:22:03.801Z,97.22
2017-03-23T07:27:09.385Z,96.17
2017-03-23T07:27:53.986Z,96.12
2017-03-23T07:28:34.385Z,94.98
2017-03-23T07:29:14.810Z,94.27
2017-03-23T07:29:55.197Z,94.46
2017-03-23T07:30:36.210Z,94.08
2017-03-23T07:31:16.588Z,92.93
2017-03-23T07:31:57.579Z,93.22
2017-03-23T07:38:48.151Z,92.41
2017-03-23T07:39:36.713Z,92.46
2017-03-23T07:44:13.772Z,93.79
2017-03-23T07:46:04.761Z,94.37
2017-03-23T07:46:49.999Z,93.51
2017-03-23T07:47:33.452Z,93.51
2017-03-23T07:48:14.450Z,93.79
2017-03-23T07:59:47.317Z,91.6
2017-03-23T08:00:27.602Z,91.69
2017-03-23T08:01:08.002Z,91.31
2017-03-23T08:03:25.543Z,91.88
2017-03-23T08:04:09.928Z,91.79
2017-03-23T08:05:58.020Z,91.13
2017-03-23T08:06:42.265Z,90.93
2017-03-23T08:15:10.894Z,91.69
2017-03-23T08:15:51.651Z,91.13
2017-03-23T08:19:46.899Z,91.41
2017-03-23T08:20:31.024Z,91.6
2017-03-23T08:22:55.614Z,91.55
2017-03-23T08:25:21.910Z,91.27
2017-03-23T08:26:07.109Z,91.02
2017-03-23T08:26:47.546Z,91.41
2017-03-23T08:27:27.999Z,91.26
2017-03-23T08:28:08.448Z,90.78
2017-03-23T08:28:48.898Z,90.4
2017-03-23T08:29:29.315Z,89.59
2017-03-23T08:30:09.769Z,89.59
2017-03-23T08:30:50.799Z,88.87
2017-03-23T08:31:31.208Z,88.29
2017-03-23T08:32:12.453Z,87.15
2017-03-23T08:32:53.616Z,86.67
2017-03-23T08:33:34.967Z,86.47
2017-03-23T08:34:15.941Z,87.05
2017-03-23T08:34:56.976Z,86.47
2017-03-23T08:35:37.364Z,86.67
2017-03-23T08:37:53.750Z,87.48
2017-03-23T08:38:37.339Z,86.47
2017-03-23T08:39:21.624Z,85.94
2017-03-23T08:47:21.962Z,65.24
2017-03-23T08:48:02.300Z,64.66
2017-03-23T08:48:42.710Z,65.4
2017-03-23T08:49:23.126Z,66.3
2017-03-23T08:50:03.541Z,67.52
2017-03-23T08:50:43.973Z,68.32
2017-03-23T08:51:25.115Z,68.9
2017-03-23T08:52:06.227Z,68.44
2017-03-23T08:52:49.146Z,68.9
2017-03-23T08:53:30.402Z,70.27
2017-03-23T08:54:10.888Z,70.43
2017-03-23T08:54:51.248Z,71.16
2017-03-23T08:55:31.654Z,71.8
2017-03-23T08:56:12.151Z,72.63
2017-03-23T08:56:52.575Z,73.68
2017-03-23T08:57:35.647Z,74.31
2017-03-23T08:58:17.572Z,74.89
2017-03-23T08:58:58.931Z,74.89
2017-03-23T08:59:41.228Z,75.18
2017-03-23T09:00:22.524Z,75.5
2017-03-23T09:01:04.628Z,75.4
2017-03-23T09:01:47.539Z,75.4
2017-03-23T09:02:28.541Z,75.35
2017-03-23T09:03:12.577Z,74.52
2017-03-23T09:03:53.913Z,73.54
2017-03-23T09:04:34.308Z,72.03
2017-03-23T09:05:14.736Z,70.53
2017-03-23T09:05:55.846Z,68.8
2017-03-23T09:06:36.277Z,68.7
2017-03-23T09:07:16.707Z,67.87
2017-03-23T09:07:57.774Z,66.81
2017-03-23T09:08:38.195Z,67.07
2017-03-23T09:09:19.302Z,67.26
2017-03-23T09:09:59.719Z,67.77
2017-03-23T09:10:40.164Z,67.87
2017-03-23T09:11:20.598Z,67.71
2017-03-23T09:12:01.566Z,67.3
2017-03-23T09:12:41.998Z,66.3
2017-03-23T09:13:22.475Z,65.11
2017-03-23T09:14:02.862Z,64.11
2017-03-23T09:14:43.287Z,62.14
2017-03-23T09:15:23.705Z,60.91
2017-03-23T09:16:04.137Z,59.97
2017-03-23T09:16:44.528Z,59.42
2017-03-23T09:17:24.958Z,58.67
2017-03-23T09:18:05.358Z,57.93
2017-03-23T09:18:45.748Z,57.18
2017-03-23T09:19:26.219Z,56.3
2017-03-23T09:20:06.666Z,56.24
2017-03-23T09:20:47.561Z,56.26
2017-03-23T09:21:27.980Z,56.07
2017-03-23T09:22:09.214Z,55.32
2017-03-23T09:22:50.579Z,54.86
2017-03-23T09:23:31.886Z,54.05
2017-03-23T09:24:12.322Z,53.86
2017-03-23T09:24:53.692Z,53.77
2017-03-23T09:25:34.099Z,54.54
2017-03-23T09:26:14.507Z,54.44
2017-03-23T09:26:54.951Z,54.44
2017-03-23T09:27:35.971Z,54.66
2017-03-23T09:28:19.097Z,52.45
2017-03-23T09:29:00.411Z,47.59
2017-03-23T09:29:41.001Z,48.07
2017-03-23T09:30:22.191Z,48.36
2017-03-23T09:31:03.406Z,48.17
2017-03-23T09:31:43.827Z,48.17
2017-03-23T09:32:24.906Z,47.69
2017-03-23T09:33:05.326Z,47.88
2017-03-23T09:33:46.577Z,48.17
2017-03-23T09:34:29.581Z,48.29
2017-03-23T09:35:11.261Z,48.71
2017-03-23T09:35:51.793Z,47.88
2017-03-23T09:36:32.208Z,46.24
2017-03-23T09:37:12.666Z,44.02
2017-03-23T09:37:53.163Z,43.75
2017-03-23T09:40:05.956Z,41.52
2017-03-23T09:40:46.391Z,40.74
2017-03-23T09:41:27.636Z,36.85
2017-03-23T09:42:08.049Z,37.54
2017-03-23T09:42:48.469Z,37.26
2017-03-23T09:43:28.928Z,37.54
2017-03-23T09:44:09.319Z,38.14
2017-03-23T09:44:50.213Z,38.04
2017-03-23T09:45:30.737Z,38.12
2017-03-23T09:46:11.183Z,38.22
2017-03-23T09:46:51.629Z,37.75
2017-03-23T09:47:32.017Z,37.27
2017-03-23T09:48:12.489Z,37.37
2017-03-23T09:48:54.464Z,34.91
2017-03-23T09:49:35.578Z,32.35
2017-03-23T09:50:15.968Z,32.55
2017-03-23T09:50:57.073Z,32.95
2017-03-23T09:51:39.101Z,33.04
2017-03-23T09:52:20.395Z,33.41
2017-03-23T09:53:01.655Z,33.98
2017-03-23T09:53:42.227Z,34.65
2017-03-23T09:54:23.337Z,34.53
2017-03-23T09:55:06.172Z,33.04
2017-03-23T09:55:46.585Z,33.31
2017-03-23T09:56:28.478Z,34.19
2017-03-23T09:57:10.877Z,35.36
2017-03-23T09:57:51.501Z,35.94
2017-03-23T09:58:33.580Z,36.16
2017-03-23T09:59:14.673Z,35.9
2017-03-23T09:59:55.677Z,35.45
2017-03-23T10:00:36.007Z,34.7
2017-03-23T10:01:16.450Z,34.54
2017-03-23T10:01:56.851Z,34.57
2017-03-23T10:02:39.756Z,33.9
2017-03-23T10:03:20.157Z,33.34
2017-03-23T10:04:02.074Z,32.28
2017-03-23T10:04:42.486Z,28.95
2017-03-23T10:05:22.923Z,29.43
2017-03-23T10:06:03.390Z,29.9
2017-03-23T10:06:43.813Z,30
2017-03-23T10:07:24.229Z,30.37